createdAt,value
2023-03-30T00:01:45.291Z,4.85
2023-03-30T00:05:09.482Z,4.80
2023-03-30T00:08:34.804Z,4.13
2023-03-30T00:12:03.455Z,5.22
2023-03-30T00:15:28.811Z,5.00
2023-03-30T00:18:52.477Z,3.97
2023-03-30T00:22:17.189Z,4.10
2023-03-30T00:25:43.244Z,3.88
2023-03-30T00:29:07.609Z,3.55
2023-03-30T00:32:32.957Z,4.35
2023-03-30T00:35:57.853Z,3.95
2023-03-30T00:39:24.783Z,4.47
2023-03-30T00:42:50.713Z,3.45
2023-03-30T00:46:13.911Z,3.60
2023-03-30T00:49:42.671Z,4.55
2023-03-30T00:53:11.885Z,3.13
2023-03-30T00:56:36.583Z,3.28
2023-03-30T01:00:01.394Z,2.20
2023-03-30T01:03:31.578Z,2.90
2023-03-30T01:06:59.085Z,2.63
2023-03-30T01:10:23.475Z,2.28
2023-03-30T01:13:50.841Z,3.67
2023-03-30T01:17:24.040Z,3.10
2023-03-30T01:21:14.953Z,2.33
2023-03-30T01:25:28.095Z,2.63
2023-03-30T01:28:58.425Z,3.33
2023-03-30T01:32:49.684Z,2.75
2023-03-30T01:36:50.930Z,2.30
2023-03-30T01:43:42.992Z,2.83
2023-03-30T01:47:11.058Z,3.25
2023-03-30T01:50:39.687Z,3.58
2023-03-30T01:54:07.169Z,3.10
2023-03-30T01:57:35.309Z,3.17
2023-03-30T02:01:02.228Z,2.75
2023-03-30T02:04:25.890Z,2.85
2023-03-30T02:07:52.642Z,4.13
2023-03-30T02:11:14.899Z,3.55
2023-03-30T02:14:40.383Z,2.63
2023-03-30T02:18:05.026Z,3.35
2023-03-30T02:21:28.232Z,3.20
2023-03-30T02:24:53.320Z,3.03
2023-03-30T02:28:15.083Z,3.10
2023-03-30T02:31:38.277Z,2.50
2023-03-30T02:35:19.997Z,2.50
2023-03-30T02:38:59.851Z,3.08
2023-03-30T02:42:37.721Z,2.63
2023-03-30T02:46:15.414Z,2.35
2023-03-30T02:49:52.168Z,2.40
2023-03-30T02:53:27.486Z,3.00
2023-03-30T02:56:59.046Z,2.78
2023-03-30T03:00:26.848Z,2.95
2023-03-30T03:03:51.632Z,2.55
2023-03-30T03:07:14.938Z,1.60
2023-03-30T03:10:38.201Z,1.90
2023-03-30T03:14:00.270Z,1.90
2023-03-30T03:17:22.604Z,1.65
2023-03-30T03:20:44.523Z,1.80
2023-03-30T03:24:08.265Z,1.80
2023-03-30T03:27:31.877Z,1.23
2023-03-30T03:30:54.368Z,1.38
2023-03-30T03:34:18.179Z,1.75
2023-03-30T03:37:41.180Z,1.50
2023-03-30T03:41:03.326Z,1.60
2023-03-30T03:44:26.933Z,1.42
2023-03-30T03:47:51.610Z,1.38
2023-03-30T03:51:13.728Z,2.47
2023-03-30T03:54:35.903Z,1.55
2023-03-30T03:57:57.727Z,1.90
2023-03-30T04:01:21.126Z,2.33
2023-03-30T04:04:43.354Z,2.05
2023-03-30T04:08:05.546Z,1.63
2023-03-30T04:11:27.811Z,2.08
2023-03-30T04:14:49.425Z,1.67
2023-03-30T04:18:13.082Z,1.92
2023-03-30T04:21:35.021Z,2.03
2023-03-30T04:24:57.224Z,2.63
2023-03-30T04:28:22.004Z,1.90
2023-03-30T04:31:47.231Z,2.17
2023-03-30T04:35:11.246Z,2.25
2023-03-30T04:38:33.319Z,2.22
2023-03-30T04:41:55.159Z,1.35
2023-03-30T04:45:18.603Z,1.55
2023-03-30T04:48:40.737Z,1.52
2023-03-30T04:52:04.072Z,1.65
2023-03-30T04:55:26.245Z,1.77
2023-03-30T04:58:48.142Z,1.67
2023-03-30T05:02:10.531Z,2.60
2023-03-30T05:05:32.443Z,2.88
2023-03-30T05:08:55.624Z,2.08
2023-03-30T05:12:17.578Z,1.90
2023-03-30T05:15:39.972Z,2.80
2023-03-30T05:19:01.572Z,2.05
2023-03-30T05:22:23.593Z,1.60
2023-03-30T05:25:48.986Z,2.35
2023-03-30T05:29:10.980Z,2.20
2023-03-30T05:32:32.978Z,2.22
2023-03-30T05:35:54.787Z,1.95
2023-03-30T05:39:16.704Z,2.55
2023-03-30T05:42:39.990Z,3.38
2023-03-30T05:46:02.741Z,2.85
2023-03-30T05:49:24.822Z,2.25
2023-03-30T05:52:47.377Z,2.35
2023-03-30T05:56:10.605Z,2.92
2023-03-30T05:59:34.167Z,3.28
2023-03-30T06:02:56.054Z,3.70
2023-03-30T06:06:17.679Z,4.45
2023-03-30T06:09:39.729Z,4.38
2023-03-30T06:13:01.541Z,3.92
2023-03-30T06:16:24.670Z,2.60
2023-03-30T06:19:46.690Z,3.38
2023-03-30T06:23:08.499Z,4.15
2023-03-30T06:26:30.568Z,3.58
2023-03-30T06:29:53.028Z,3.00
2023-03-30T06:33:17.758Z,3.10
2023-03-30T06:36:44.810Z,3.58
2023-03-30T06:40:13.361Z,2.75
2023-03-30T06:43:35.650Z,2.15
2023-03-30T06:46:57.543Z,3.38
2023-03-30T06:50:21.134Z,4.28
2023-03-30T06:53:45.107Z,3.47
2023-03-30T06:57:08.043Z,3.33
2023-03-30T07:00:29.870Z,2.80
2023-03-30T07:03:54.046Z,3.35
2023-03-30T07:07:17.998Z,3.08
2023-03-30T07:10:40.033Z,2.45
2023-03-30T07:14:02.479Z,2.38
2023-03-30T07:17:26.860Z,2.63
2023-03-30T07:20:48.711Z,2.83
2023-03-30T07:24:11.968Z,2.72
2023-03-30T07:27:36.251Z,1.98
2023-03-30T07:31:06.475Z,2.45
2023-03-30T07:34:28.824Z,2.97
2023-03-30T07:37:51.331Z,2.72
2023-03-30T07:41:16.396Z,2.42
2023-03-30T07:44:38.417Z,3.25
2023-03-30T07:48:00.199Z,2.00
2023-03-30T07:51:22.392Z,2.90
2023-03-30T07:54:45.409Z,2.83
2023-03-30T07:58:09.003Z,2.63
2023-03-30T08:01:31.619Z,2.38
2023-03-30T08:04:54.119Z,2.50
2023-03-30T08:08:15.917Z,2.38
2023-03-30T08:11:37.768Z,2.22
2023-03-30T08:15:01.333Z,2.85
2023-03-30T08:18:23.398Z,2.17
2023-03-30T08:21:45.062Z,1.95
2023-03-30T08:25:07.627Z,2.47
2023-03-30T08:28:29.676Z,3.10
2023-03-30T08:31:54.201Z,2.45
2023-03-30T08:35:17.133Z,1.95
2023-03-30T08:38:39.325Z,1.70
2023-03-30T08:42:11.855Z,2.30
2023-03-30T08:45:40.379Z,2.63
2023-03-30T08:49:12.532Z,1.67
2023-03-30T08:52:34.525Z,1.80
2023-03-30T08:56:00.222Z,1.77
2023-03-30T08:59:31.190Z,1.77
2023-03-30T09:02:56.784Z,2.00
2023-03-30T09:06:27.419Z,1.75
2023-03-30T09:09:52.210Z,1.90
2023-03-30T09:13:18.175Z,1.92
2023-03-30T09:16:47.324Z,1.55
2023-03-30T09:20:15.395Z,2.72
2023-03-30T09:23:40.830Z,10.40
2023-03-30T09:27:09.384Z,2.42
2023-03-30T09:30:39.074Z,2.63
2023-03-30T09:34:07.889Z,2.75
2023-03-30T09:37:31.418Z,2.85
2023-03-30T09:41:17.958Z,2.80
2023-03-30T09:44:47.935Z,2.55
2023-03-30T09:48:10.628Z,2.13
2023-03-30T09:51:32.361Z,2.30
2023-03-30T09:54:54.306Z,3.53
2023-03-30T09:58:24.263Z,3.33
2023-03-30T10:01:46.380Z,3.40
2023-03-30T10:05:18.308Z,2.08
2023-03-30T10:08:45.470Z,12.45
2023-03-30T10:12:07.806Z,4.10
2023-03-30T10:15:32.582Z,3.10
2023-03-30T10:18:57.903Z,2.58
2023-03-30T10:22:22.805Z,3.33
2023-03-30T10:25:46.737Z,4.60
2023-03-30T10:29:11.152Z,3.00
2023-03-30T10:32:34.174Z,2.33
2023-03-30T10:36:00.679Z,4.50
2023-03-30T10:39:27.169Z,3.53
2023-03-30T10:42:52.827Z,2.97
2023-03-30T10:46:20.524Z,3.67
2023-03-30T10:49:54.178Z,3.17
2023-03-30T10:53:35.067Z,3.08
2023-03-30T10:57:02.843Z,3.00
2023-03-30T11:00:38.842Z,2.35
2023-03-30T11:04:12.746Z,3.78
2023-03-30T11:07:48.649Z,3.30
2023-03-30T11:11:19.458Z,4.32
2023-03-30T11:14:48.279Z,5.57
2023-03-30T11:18:16.736Z,3.17
2023-03-30T11:21:45.973Z,3.78
2023-03-30T11:25:22.152Z,4.25
2023-03-30T11:28:54.892Z,4.18
2023-03-30T11:32:26.157Z,3.30
2023-03-30T11:35:49.422Z,4.88
2023-03-30T11:39:28.854Z,3.97
2023-03-30T11:42:54.561Z,4.32
2023-03-30T11:46:24.161Z,3.70
2023-03-30T11:49:58.162Z,3.72
2023-03-30T11:53:30.124Z,4.05
2023-03-30T11:56:57.985Z,3.70
2023-03-30T12:00:48.221Z,3.83
2023-03-30T12:04:12.032Z,3.58
2023-03-30T12:07:42.539Z,3.25
2023-03-30T12:11:13.845Z,3.13
2023-03-30T12:15:00.172Z,3.47
2023-03-30T12:18:31.359Z,2.88
2023-03-30T12:21:59.192Z,3.13
2023-03-30T12:25:29.962Z,3.17
2023-03-30T12:29:36.011Z,3.30
2023-03-30T12:32:58.862Z,2.63
2023-03-30T12:39:54.588Z,2.80
2023-03-30T12:43:26.370Z,3.10
2023-03-30T12:46:59.418Z,3.53
2023-03-30T12:50:39.113Z,3.03
2023-03-30T12:54:39.326Z,3.40
2023-03-30T12:58:30.509Z,3.50
2023-03-30T13:02:12.640Z,3.78
2023-03-30T13:05:37.101Z,3.38
2023-03-30T13:09:26.156Z,3.78
2023-03-30T13:12:49.989Z,4.43
2023-03-30T13:16:14.138Z,3.35
2023-03-30T13:19:48.663Z,4.35
2023-03-30T13:23:34.998Z,4.10
2023-03-30T13:27:22.247Z,3.42
2023-03-30T13:30:47.280Z,3.25
2023-03-30T13:34:20.547Z,3.10
2023-03-30T13:37:58.745Z,5.40
2023-03-30T13:41:32.785Z,3.92
2023-03-30T13:45:03.474Z,4.13
2023-03-30T13:48:44.733Z,4.57
2023-03-30T13:52:12.312Z,4.20
2023-03-30T13:55:39.349Z,4.72
2023-03-30T13:59:06.723Z,4.10
2023-03-30T14:02:31.995Z,4.25
2023-03-30T14:06:04.067Z,4.97
2023-03-30T14:09:27.775Z,4.55
2023-03-30T14:12:53.778Z,4.40
2023-03-30T14:16:21.634Z,4.97
2023-03-30T14:19:52.954Z,5.03
2023-03-30T14:23:20.593Z,3.35
2023-03-30T14:26:43.086Z,3.97
2023-03-30T14:30:19.237Z,3.63
2023-03-30T14:33:41.839Z,4.95
2023-03-30T14:37:06.647Z,3.95
2023-03-30T14:40:29.682Z,3.95
2023-03-30T14:43:55.695Z,3.90
2023-03-30T14:47:20.697Z,6.55
2023-03-30T14:50:42.872Z,3.50
2023-03-30T14:54:06.277Z,4.13
2023-03-30T14:57:31.667Z,3.35
2023-03-30T15:00:57.674Z,3.90
2023-03-30T15:04:20.351Z,4.57
2023-03-30T15:07:42.560Z,5.50
2023-03-30T15:11:11.116Z,5.15
2023-03-30T15:14:37.188Z,3.80
2023-03-30T15:18:00.294Z,6.50
2023-03-30T15:21:22.192Z,4.78
2023-03-30T15:24:44.707Z,5.22
2023-03-30T15:28:10.898Z,4.60
2023-03-30T15:31:34.326Z,5.60
2023-03-30T15:35:04.505Z,4.55
2023-03-30T15:38:32.057Z,4.60
2023-03-30T15:42:01.757Z,3.90
2023-03-30T15:45:23.852Z,4.53
2023-03-30T15:48:48.266Z,6.40
2023-03-30T15:52:14.844Z,6.40
2023-03-30T15:55:40.800Z,4.57
2023-03-30T15:59:02.923Z,7.45
2023-03-30T16:02:36.987Z,5.95
2023-03-30T16:06:00.552Z,5.80
2023-03-30T16:09:23.025Z,6.25
2023-03-30T16:12:46.621Z,6.07
2023-03-30T16:16:09.192Z,7.70
2023-03-30T16:19:31.261Z,6.07
2023-03-30T16:22:54.973Z,5.40
2023-03-30T16:26:16.781Z,7.10
2023-03-30T16:29:38.509Z,7.57
2023-03-30T16:33:00.175Z,6.68
2023-03-30T16:36:24.213Z,6.53
2023-03-30T16:39:48.608Z,6.57
2023-03-30T16:43:10.654Z,5.93
2023-03-30T16:46:33.382Z,6.40
2023-03-30T16:49:55.563Z,8.30
2023-03-30T16:53:17.242Z,6.55
2023-03-30T16:56:41.375Z,7.45
2023-03-30T17:00:04.991Z,7.35
2023-03-30T17:03:26.651Z,9.60
2023-03-30T17:06:48.377Z,9.00
2023-03-30T17:10:29.200Z,8.73
2023-03-30T17:13:52.431Z,7.60
2023-03-30T17:17:14.403Z,8.43
2023-03-30T17:20:41.601Z,8.25
2023-03-30T17:24:05.100Z,6.57
2023-03-30T17:27:28.660Z,7.13
2023-03-30T17:30:53.700Z,6.65
2023-03-30T17:34:15.931Z,9.07
2023-03-30T17:37:38.264Z,8.48
2023-03-30T17:41:00.176Z,8.80
2023-03-30T17:44:21.926Z,8.18
2023-03-30T17:47:46.036Z,9.75
2023-03-30T17:51:08.165Z,9.65
2023-03-30T17:54:30.844Z,8.38
2023-03-30T17:57:53.087Z,8.25
2023-03-30T18:01:16.912Z,11.27
2023-03-30T18:04:39.977Z,9.40
2023-03-30T18:08:01.442Z,8.20
2023-03-30T18:11:23.345Z,7.03
2023-03-30T18:14:45.365Z,9.07
2023-03-30T18:18:07.157Z,6.32
2023-03-30T18:21:30.415Z,7.10
2023-03-30T18:24:52.311Z,6.97
2023-03-30T18:28:17.922Z,6.82
2023-03-30T18:31:40.116Z,7.40
2023-03-30T18:35:01.809Z,7.55
2023-03-30T18:38:25.839Z,7.32
2023-03-30T18:41:47.632Z,8.15
2023-03-30T18:45:10.522Z,6.82
2023-03-30T18:48:32.372Z,6.55
2023-03-30T18:51:54.760Z,6.00
2023-03-30T18:55:18.707Z,8.00
2023-03-30T18:58:42.954Z,5.35
2023-03-30T19:02:05.181Z,6.88
2023-03-30T19:05:29.434Z,6.07
2023-03-30T19:08:51.378Z,4.85
2023-03-30T19:12:14.951Z,5.35
2023-03-30T19:15:37.950Z,5.45
2023-03-30T19:19:00.213Z,5.93
2023-03-30T19:22:22.763Z,4.80
2023-03-30T19:25:45.825Z,4.65
2023-03-30T19:29:09.552Z,5.80
2023-03-30T19:32:31.474Z,4.75
2023-03-30T19:35:53.594Z,4.93
2023-03-30T19:39:15.468Z,6.25
2023-03-30T19:42:37.536Z,4.38
2023-03-30T19:46:03.048Z,3.67
2023-03-30T19:49:24.881Z,5.10
2023-03-30T19:52:48.934Z,4.68
2023-03-30T19:56:11.643Z,5.22
2023-03-30T19:59:33.281Z,6.28
2023-03-30T20:02:57.162Z,5.88
2023-03-30T20:06:18.948Z,4.95
2023-03-30T20:09:42.679Z,4.93
2023-03-30T20:13:05.050Z,5.32
2023-03-30T20:16:30.099Z,4.43
2023-03-30T20:19:54.717Z,4.45
2023-03-30T20:23:16.847Z,4.63
2023-03-30T20:26:39.767Z,4.20
2023-03-30T20:30:02.046Z,4.60
2023-03-30T20:33:24.090Z,5.63
2023-03-30T20:36:50.124Z,4.05
2023-03-30T20:40:13.181Z,3.97
2023-03-30T20:43:55.867Z,4.55
2023-03-30T20:47:23.616Z,4.15
2023-03-30T20:50:45.644Z,4.07
2023-03-30T20:54:10.541Z,3.72
2023-03-30T20:57:32.761Z,4.45
2023-03-30T21:00:58.112Z,4.20
2023-03-30T21:04:20.065Z,6.65
2023-03-30T21:07:47.427Z,5.40
2023-03-30T21:11:11.406Z,5.15
2023-03-30T21:14:33.559Z,4.93
2023-03-30T21:17:55.614Z,4.63
2023-03-30T21:21:17.471Z,4.18
2023-03-30T21:24:39.717Z,5.53
2023-03-30T21:28:03.418Z,6.78
2023-03-30T21:31:25.923Z,5.43
2023-03-30T21:34:47.789Z,5.30
2023-03-30T21:38:09.664Z,4.63
2023-03-30T21:41:31.550Z,6.40
2023-03-30T21:44:54.833Z,5.82
2023-03-30T21:48:17.126Z,5.50
2023-03-30T21:51:39.152Z,5.68
2023-03-30T21:55:00.986Z,5.38
2023-03-30T21:58:23.716Z,5.40
2023-03-30T22:01:47.226Z,6.03
2023-03-30T22:05:09.403Z,6.35
2023-03-30T22:08:31.270Z,6.43
2023-03-30T22:11:55.546Z,6.43
2023-03-30T22:15:17.378Z,7.63
2023-03-30T22:18:40.940Z,6.65
2023-03-30T22:22:02.980Z,6.50
2023-03-30T22:25:24.812Z,5.68
2023-03-30T22:28:46.804Z,6.05
2023-03-30T22:32:10.049Z,6.35
2023-03-30T22:35:38.734Z,5.38
2023-03-30T22:39:02.765Z,5.57
2023-03-30T22:42:24.659Z,6.78
2023-03-30T22:45:46.437Z,7.38
2023-03-30T22:49:08.183Z,7.80
2023-03-30T22:52:31.542Z,8.43
2023-03-30T22:55:55.908Z,6.97
2023-03-30T22:59:18.028Z,7.03
2023-03-30T23:02:40.034Z,6.40
2023-03-30T23:06:02.164Z,7.05
2023-03-30T23:09:28.803Z,8.07
2023-03-30T23:12:51.137Z,6.82
2023-03-30T23:16:13.197Z,6.85
2023-03-30T23:19:36.648Z,6.65
2023-03-30T23:22:58.428Z,6.13
2023-03-30T23:26:21.808Z,6.68
2023-03-30T23:29:44.337Z,6.13
2023-03-30T23:33:06.096Z,6.72
2023-03-30T23:36:28.550Z,7.55
2023-03-30T23:39:51.760Z,10.38
2023-03-30T23:43:15.116Z,9.60
2023-03-30T23:46:38.019Z,9.25
2023-03-30T23:50:00.008Z,12.30
2023-03-30T23:53:21.918Z,12.38
2023-03-30T23:56:47.036Z,10.27
